Time;durP1;ratioP1;P1;durP2;ratioP2;P2;SDS_P1;SDS_P2;PMS_P1;PMS_P2;Temp;Humidity;BMP_temperature;BMP_pressure;BME280_temperature;BME280_humidity;BME280_pressure;Samples;Min_cycle;Max_cycle;Signal;HPM_P1;HPM_P2
2023/11/24 00:00:30;;;;;;;7.32;6.68;;;;;;;9.11;100.00;100622.09;6098287;23;20088;-68
2023/11/24 00:02:56;;;;;;;7.93;4.65;;;;;;;8.93;100.00;100615.97;6085318;23;20014;-71
2023/11/24 00:05:23;;;;;;;4.93;4.47;;;;;;;9.04;100.00;100605.00;6102867;23;20140;-71
2023/11/24 00:07:51;;;;;;;5.78;4.68;;;;;;;9.03;100.00;100605.91;6085067;23;20034;-71
2023/11/24 00:10:18;;;;;;;5.97;5.50;;;;;;;9.00;100.00;100606.06;6105487;23;20092;-70
2023/11/24 00:12:46;;;;;;;5.00;4.60;;;;;;;9.06;100.00;100620.63;6102272;23;20414;-69
2023/11/24 00:15:12;;;;;;;5.43;4.90;;;;;;;9.06;100.00;100621.50;6086114;23;20167;-71
2023/11/24 00:17:39;;;;;;;5.20;4.80;;;;;;;9.02;100.00;100608.59;6074687;23;20324;-69
2023/11/24 00:20:08;;;;;;;4.15;3.95;;;;;;;8.86;100.00;100577.06;6084634;23;20025;-69
2023/11/24 00:22:37;;;;;;;5.00;4.80;;;;;;;9.03;100.00;100605.06;6098928;23;20503;-69
2023/11/24 00:25:04;;;;;;;4.07;3.88;;;;;;;9.02;100.00;100603.34;6106599;23;20084;-69
2023/11/24 00:27:31;;;;;;;4.35;4.15;;;;;;;8.81;100.00;100566.81;6104379;23;20029;-69
2023/11/24 00:29:57;;;;;;;3.97;3.78;;;;;;;9.03;100.00;100587.59;6081600;23;20168;-70
2023/11/24 00:32:24;;;;;;;6.20;5.65;;;;;;;9.04;100.00;100572.72;6103504;23;20163;-70
2023/11/24 00:34:51;;;;;;;4.40;4.20;;;;;;;9.02;100.00;100559.72;6072374;23;20085;-70
2023/11/24 00:37:17;;;;;;;6.05;4.53;;;;;;;8.45;100.00;100462.97;6100294;23;20014;-70
2023/11/24 00:39:44;;;;;;;9.05;4.72;;;;;;;8.99;100.00;100520.59;6106545;23;20029;-70
2023/11/24 00:42:10;;;;;;;9.77;4.78;;;;;;;9.02;100.00;100507.38;6082057;23;20078;-69
2023/11/24 00:44:37;;;;;;;4.95;4.45;;;;;;;8.98;100.00;100456.09;6105204;23;20710;-70
2023/11/24 00:47:03;;;;;;;4.97;4.68;;;;;;;8.95;100.00;100432.69;6084946;23;20009;-69
2023/11/24 00:49:29;;;;;;;15.02;5.85;;;;;;;8.88;100.00;100420.81;6103965;23;20036;-68
2023/11/24 00:51:56;;;;;;;4.93;4.63;;;;;;;8.85;100.00;100410.53;6113036;23;20418;-70
2023/11/24 00:54:23;;;;;;;6.65;6.15;;;;;;;8.61;100.00;100336.72;6083050;23;20092;-69
2023/11/24 00:56:49;;;;;;;12.98;5.28;;;;;;;8.53;100.00;100308.31;6109141;23;20345;-68
2023/11/24 00:59:16;;;;;;;12.38;4.88;;;;;;;8.52;100.00;100277.84;6083454;23;20022;-69
2023/11/24 01:01:43;;;;;;;5.45;5.00;;;;;;;8.36;100.00;100228.91;6110730;23;20036;-69
2023/11/24 01:04:09;;;;;;;8.23;4.00;;;;;;;8.88;100.00;100342.31;6109523;23;20445;-69
2023/11/24 01:06:36;;;;;;;4.70;4.40;;;;;;;8.82;100.00;100348.72;6102316;23;20503;-69
2023/11/24 01:09:04;;;;;;;4.25;3.95;;;;;;;8.85;100.00;100363.41;6110868;23;20454;-70
2023/11/24 01:11:31;;;;;;;6.00;4.30;;;;;;;8.86;100.00;100367.72;6103667;23;20033;-69
2023/11/24 01:13:58;;;;;;;4.00;3.80;;;;;;;8.85;100.00;100361.63;6067615;23;20028;-69
2023/11/24 01:16:24;;;;;;;5.95;5.65;;;;;;;8.79;100.00;100336.63;6103437;23;20014;-69
2023/11/24 01:18:52;;;;;;;12.82;4.70;;;;;;;8.71;100.00;100309.16;6109122;23;20102;-69
2023/11/24 01:21:18;;;;;;;4.10;3.90;;;;;;;8.50;100.00;100277.94;6112374;23;20498;-69
2023/11/24 01:23:45;;;;;;;4.65;4.45;;;;;;;8.78;100.00;100327.09;6106602;23;20089;-68
2023/11/24 01:26:12;;;;;;;4.15;3.95;;;;;;;8.78;100.00;100298.31;6090266;23;20591;-68
2023/11/24 01:28:38;;;;;;;4.68;4.38;;;;;;;8.84;100.00;100318.09;6103106;23;20929;-68
2023/11/24 01:31:05;;;;;;;5.30;4.78;;;;;;;8.38;100.00;100252.38;6087465;23;20093;-69
2023/11/24 01:33:32;;;;;;;4.30;4.10;;;;;;;8.83;100.00;100305.09;6112106;23;20111;-69
2023/11/24 01:36:00;;;;;;;13.75;5.20;;;;;;;8.58;100.00;100273.16;6105219;23;20100;-69
2023/11/24 01:38:28;;;;;;;8.73;5.60;;;;;;;8.18;100.00;100250.75;6086723;23;20026;-70
2023/11/24 01:40:54;;;;;;;5.68;5.38;;;;;;;8.37;100.00;100321.28;6103996;23;20017;-69
2023/11/24 01:43:21;;;;;;;5.55;5.00;;;;;;;8.28;100.00;100347.84;6103986;23;20022;-69
2023/11/24 01:45:47;;;;;;;12.90;4.78;;;;;;;7.96;100.00;100326.75;6086144;23;20519;-69
2023/11/24 01:48:17;;;;;;;4.40;4.20;;;;;;;8.23;100.00;100402.13;6105485;23;20033;-69
2023/11/24 01:50:43;;;;;;;7.95;5.22;;;;;;;7.75;100.00;100359.94;6108021;23;20021;-70
2023/11/24 01:53:10;;;;;;;3.97;3.80;;;;;;;8.12;100.00;100427.03;6084056;23;20026;-70
2023/11/24 01:55:37;;;;;;;4.60;4.00;;;;;;;8.07;100.00;100443.81;6111576;23;20057;-69
2023/11/24 01:58:03;;;;;;;4.68;4.38;;;;;;;7.66;100.00;100382.09;6082106;23;20014;-69
2023/11/24 02:00:33;;;;;;;12.63;6.45;;;;;;;7.74;100.00;100394.81;6102218;23;20013;-68
2023/11/24 02:02:59;;;;;;;4.60;4.30;;;;;;;8.07;100.00;100428.16;6087649;23;20018;-70
2023/11/24 02:05:26;;;;;;;5.30;4.90;;;;;;;8.08;100.00;100398.47;6102509;23;20053;-69
2023/11/24 02:07:53;;;;;;;4.28;3.95;;;;;;;8.05;100.00;100362.03;6109739;23;20029;-70
2023/11/24 02:10:21;;;;;;;11.32;5.60;;;;;;;8.00;100.00;100346.59;6104228;23;20041;-72
2023/11/24 02:12:49;;;;;;;3.90;3.75;;;;;;;7.92;100.00;100286.84;6078620;23;20025;-71
2023/11/24 02:15:15;;;;;;;4.10;3.90;;;;;;;7.93;100.00;100288.50;6109707;23;20097;-69
2023/11/24 02:17:42;;;;;;;7.95;4.63;;;;;;;7.90;100.00;100273.00;6080103;23;20025;-71
2023/11/24 02:20:11;;;;;;;3.88;3.67;;;;;;;6.52;100.00;100066.28;6108234;23;20120;-69
2023/11/24 02:22:41;;;;;;;4.40;4.10;;;;;;;7.81;100.00;100301.31;6081550;23;20045;-70
2023/11/24 02:25:08;;;;;;;4.28;4.07;;;;;;;7.66;100.00;100284.59;6109623;23;20033;-70
2023/11/24 02:27:35;;;;;;;5.88;4.43;;;;;;;7.70;100.00;100270.50;6109133;23;20184;-70
2023/11/24 02:30:02;;;;;;;4.70;4.25;;;;;;;7.69;100.00;100268.78;6077526;23;20083;-69
2023/11/24 02:32:28;;;;;;;6.03;5.57;;;;;;;7.61;100.00;100268.31;6078709;23;20021;-70
2023/11/24 02:34:54;;;;;;;10.77;5.53;;;;;;;7.21;100.00;100220.56;6104297;23;20013;-69
2023/11/24 02:37:21;;;;;;;5.32;3.78;;;;;;;7.69;100.00;100253.97;6105350;23;20032;-69
2023/11/24 02:39:47;;;;;;;4.18;3.88;;;;;;;7.65;100.00;100228.06;6081362;23;20103;-72
2023/11/24 02:42:16;;;;;;;4.72;4.30;;;;;;;7.53;100.00;100201.59;6104286;23;20100;-68
2023/11/24 02:44:43;;;;;;;4.07;3.88;;;;;;;7.48;100.00;100198.38;6079003;23;20026;-69
2023/11/24 02:47:10;;;;;;;5.05;4.20;;;;;;;7.54;100.00;100192.88;6106149;23;20100;-69
2023/11/24 02:49:38;;;;;;;4.30;4.10;;;;;;;7.52;100.00;100178.22;6106628;23;20033;-69
2023/11/24 02:52:05;;;;;;;4.00;3.80;;;;;;;6.92;100.00;100069.66;6109965;23;20127;-69
2023/11/24 02:54:32;;;;;;;6.00;5.57;;;;;;;7.50;100.00;100160.00;6086259;23;20037;-69
2023/11/24 02:56:58;;;;;;;4.05;3.85;;;;;;;7.46;100.00;100173.28;6110836;23;20077;-69
2023/11/24 02:59:26;;;;;;;4.57;4.03;;;;;;;7.39;100.00;100170.94;6076386;23;20032;-69
2023/11/24 03:01:52;;;;;;;5.10;4.60;;;;;;;7.23;100.00;100185.63;6109159;23;20094;-68
2023/11/24 03:04:19;;;;;;;9.07;5.88;;;;;;;7.42;100.00;100227.41;6088451;23;20020;-69
2023/11/24 03:06:46;;;;;;;6.93;4.20;;;;;;;7.32;100.00;100229.59;6106302;23;20045;-69
2023/11/24 03:09:14;;;;;;;4.63;4.43;;;;;;;7.26;100.00;100234.25;6090593;23;20130;-70
2023/11/24 03:11:40;;;;;;;4.28;4.07;;;;;;;6.78;100.00;100164.19;6106684;23;20560;-69
2023/11/24 03:14:07;;;;;;;3.85;3.65;;;;;;;6.88;100.00;100182.88;6093295;23;20560;-69
2023/11/24 03:16:34;;;;;;;9.68;5.15;;;;;;;7.22;100.00;100251.81;6111408;23;20937;-69
2023/11/24 03:19:01;;;;;;;4.10;3.90;;;;;;;6.05;100.00;100089.25;6087688;23;20029;-69
2023/11/24 03:21:28;;;;;;;11.93;3.97;;;;;;;6.67;100.00;100218.56;6085394;23;20037;-69
2023/11/24 03:23:54;;;;;;;4.22;3.92;;;;;;;7.22;100.00;100298.78;6084239;23;20025;-69
2023/11/24 03:26:21;;;;;;;10.90;6.50;;;;;;;7.24;100.00;100272.63;6112361;23;20391;-70
2023/11/24 03:28:47;;;;;;;4.00;3.80;;;;;;;7.36;100.00;100240.72;6103988;23;20184;-70
2023/11/24 03:31:13;;;;;;;4.22;4.03;;;;;;;7.30;100.00;100197.50;6093648;23;20429;-70
2023/11/24 03:33:40;;;;;;;4.65;4.35;;;;;;;7.27;100.00;100175.91;6111223;23;20031;-69
2023/11/24 03:36:06;;;;;;;4.10;3.90;;;;;;;7.18;100.00;100136.25;6107567;23;20823;-69
2023/11/24 03:38:33;;;;;;;5.32;5.13;;;;;;;7.03;100.00;100115.25;6085002;23;20516;-69
2023/11/24 03:41:00;;;;;;;4.13;3.83;;;;;;;7.20;100.00;100130.97;6079942;23;20280;-69
2023/11/24 03:43:26;;;;;;;3.80;3.63;;;;;;;7.28;100.00;100144.50;6090130;23;20022;-70
2023/11/24 03:45:54;;;;;;;5.72;4.38;;;;;;;7.22;100.00;100134.38;6107264;23;20009;-70
2023/11/24 03:48:21;;;;;;;5.03;4.82;;;;;;;6.66;100.00;100049.19;6099502;23;20033;-70
2023/11/24 03:50:49;;;;;;;3.97;3.78;;;;;;;7.01;100.00;100120.53;6080291;23;20018;-69
2023/11/24 03:53:18;;;;;;;5.05;4.65;;;;;;;7.15;100.00;100123.34;6097315;23;20098;-70
2023/11/24 03:55:45;;;;;;;10.88;5.13;;;;;;;6.92;100.00;100095.75;6106505;23;20066;-69
2023/11/24 03:58:12;;;;;;;4.18;3.97;;;;;;;7.20;100.00;100125.75;6103144;23;20017;-70
2023/11/24 04:00:38;;;;;;;4.57;4.28;;;;;;;6.98;100.00;100095.47;6072002;23;20034;-71
2023/11/24 04:03:05;;;;;;;4.03;3.83;;;;;;;7.18;100.00;100104.13;6103427;23;20026;-69
2023/11/24 04:05:32;;;;;;;6.60;4.63;;;;;;;7.29;100.00;100120.09;6102782;23;20040;-72
2023/11/24 04:07:58;;;;;;;4.65;4.32;;;;;;;7.22;100.00;100092.59;6112708;23;20018;-68
2023/11/24 04:10:25;;;;;;;5.70;5.45;;;;;;;7.17;100.00;100092.81;6082194;23;20097;-70
2023/11/24 04:12:52;;;;;;;3.65;3.55;;;;;;;7.13;100.00;100077.38;6106123;23;20077;-69
2023/11/24 04:15:19;;;;;;;4.22;3.97;;;;;;;7.08;100.00;100080.22;6109280;23;20021;-70
2023/11/24 04:17:45;;;;;;;5.40;5.00;;;;;;;7.19;100.00;100069.25;6081867;23;20039;-69
2023/11/24 04:20:12;;;;;;;3.55;3.45;;;;;;;7.13;100.00;100056.50;6107698;23;20025;-69
2023/11/24 04:22:38;;;;;;;4.18;3.97;;;;;;;6.44;100.00;99929.44;6101682;23;20023;-69
2023/11/24 04:25:05;;;;;;;4.10;3.90;;;;;;;7.06;100.00;100027.25;6108186;23;20022;-70
2023/11/24 04:27:32;;;;;;;3.60;3.50;;;;;;;7.05;100.00;100058.63;6105035;23;20240;-69
2023/11/24 04:29:58;;;;;;;4.93;4.63;;;;;;;6.99;100.00;100063.22;6110878;23;20032;-69
2023/11/24 04:32:25;;;;;;;8.63;5.43;;;;;;;6.94;100.00;100056.56;6114846;23;20047;-71
2023/11/24 04:34:51;;;;;;;4.35;4.13;;;;;;;6.96;100.00;100072.97;6105567;23;20025;-70
2023/11/24 04:37:19;;;;;;;4.13;3.72;;;;;;;6.94;100.00;100080.03;5942638;23;20175;-72
2023/11/24 04:39:46;;;;;;;12.88;4.70;;;;;;;6.77;100.00;100075.59;6112263;23;20257;-71
2023/11/24 04:42:13;;;;;;;4.25;4.05;;;;;;;6.93;100.00;100110.47;6085549;23;20029;-71
2023/11/24 04:44:39;;;;;;;3.70;3.50;;;;;;;6.99;100.00;100117.16;6110834;23;20026;-70
2023/11/24 04:47:05;;;;;;;3.60;3.50;;;;;;;6.93;100.00;100099.19;6085634;23;20022;-71
2023/11/24 04:49:32;;;;;;;3.63;3.53;;;;;;;6.90;100.00;100068.88;6111934;23;20016;-71
2023/11/24 04:52:00;;;;;;;3.80;3.70;;;;;;;6.92;100.00;100061.00;6086719;23;20269;-69
2023/11/24 04:54:26;;;;;;;4.65;4.45;;;;;;;6.48;100.00;99955.25;6081006;23;20030;-71
2023/11/24 04:56:56;;;;;;;5.15;3.83;;;;;;;6.93;100.00;100013.94;6111340;23;20468;-71
2023/11/24 04:59:23;;;;;;;4.85;3.72;;;;;;;6.64;100.00;99957.16;6086154;23;20041;-70
2023/11/24 05:01:50;;;;;;;3.85;3.75;;;;;;;6.35;100.00;99886.38;6110156;23;20017;-68
2023/11/24 05:04:16;;;;;;;3.67;3.55;;;;;;;7.06;100.00;99971.63;6110923;23;20401;-70
2023/11/24 05:06:43;;;;;;;4.00;3.80;;;;;;;6.93;100.00;99969.59;6105232;23;20257;-70
2023/11/24 05:09:11;;;;;;;3.53;3.42;;;;;;;6.46;100.00;99897.16;6107603;23;20026;-69
2023/11/24 05:11:38;;;;;;;3.85;3.65;;;;;;;6.94;100.00;99970.47;6083129;23;20025;-70
2023/11/24 05:14:04;;;;;;;3.55;3.45;;;;;;;6.52;100.00;99907.28;6107746;23;20444;-69
2023/11/24 05:16:31;;;;;;;7.20;5.55;;;;;;;6.92;100.00;99960.09;6071844;23;20104;-70
2023/11/24 05:18:57;;;;;;;3.78;3.58;;;;;;;6.95;100.00;99979.97;6106094;23;20249;-69
2023/11/24 05:21:24;;;;;;;3.60;3.40;;;;;;;6.89;100.00;99969.84;6090585;23;20587;-69
2023/11/24 05:23:50;;;;;;;4.10;3.90;;;;;;;6.84;100.00;99966.63;6106218;23;20053;-70
2023/11/24 05:26:17;;;;;;;4.32;4.03;;;;;;;6.86;100.00;99988.25;6091545;23;20036;-69
2023/11/24 05:28:44;;;;;;;4.10;3.72;;;;;;;6.79;100.00;99956.41;6074964;23;20096;-69
2023/11/24 05:31:12;;;;;;;4.40;4.10;;;;;;;6.78;100.00;99986.84;6091165;23;20134;-70
2023/11/24 05:33:41;;;;;;;3.63;3.45;;;;;;;6.86;100.00;100056.91;6110754;23;20029;-68
2023/11/24 05:36:09;;;;;;;3.88;3.67;;;;;;;6.30;100.00;99995.22;6086004;23;20033;-70
2023/11/24 05:38:39;;;;;;;3.60;3.50;;;;;;;6.29;100.00;100023.00;6111159;23;20392;-69
2023/11/24 05:41:05;;;;;;;4.32;4.13;;;;;;;6.81;100.00;100123.25;6083826;23;20401;-70
2023/11/24 05:43:32;;;;;;;3.63;3.53;;;;;;;6.81;100.00;100150.16;6111604;23;20490;-69
2023/11/24 05:45:58;;;;;;;3.53;3.42;;;;;;;6.53;100.00;100114.88;6087914;23;20065;-69
2023/11/24 05:48:25;;;;;;;5.05;4.85;;;;;;;6.67;100.00;100121.25;6104480;23;20040;-69
2023/11/24 05:50:52;;;;;;;3.88;3.70;;;;;;;6.84;100.00;100157.03;6093256;23;20049;-70
2023/11/24 05:53:18;;;;;;;3.78;3.58;;;;;;;6.22;100.00;100062.47;6106688;23;20024;-69
2023/11/24 05:55:45;;;;;;;9.13;4.28;;;;;;;6.78;100.00;100153.75;6088732;23;20053;-70
2023/11/24 05:58:11;;;;;;;3.90;3.70;;;;;;;6.80;100.00;100164.13;6111915;23;20369;-70
2023/11/24 06:00:38;;;;;;;3.85;3.65;;;;;;;6.86;100.00;100168.22;6103718;23;20041;-70
2023/11/24 06:03:05;;;;;;;3.60;3.40;;;;;;;6.89;100.00;100160.25;6113439;23;20013;-70
2023/11/24 06:05:31;;;;;;;3.75;3.65;;;;;;;6.37;100.00;100091.31;6109756;23;20338;-70
2023/11/24 06:07:58;;;;;;;3.67;3.58;;;;;;;6.82;100.00;100167.50;6094030;23;20184;-70
2023/11/24 06:10:24;;;;;;;5.35;4.97;;;;;;;6.82;100.00;100182.31;6106961;23;20025;-70
2023/11/24 06:12:51;;;;;;;4.00;3.80;;;;;;;6.86;100.00;100183.88;6110976;23;20034;-70
2023/11/24 06:15:18;;;;;;;3.80;3.60;;;;;;;6.78;100.00;100174.63;6091233;23;20033;-69
2023/11/24 06:17:45;;;;;;;8.68;3.92;;;;;;;6.82;100.00;100196.19;6108066;23;20058;-69
2023/11/24 06:20:11;;;;;;;3.58;3.47;;;;;;;6.87;100.00;100211.63;6093827;23;20021;-70
2023/11/24 06:22:38;;;;;;;3.60;3.40;;;;;;;6.77;100.00;100191.16;6102545;23;20021;-71
2023/11/24 06:25:05;;;;;;;3.55;3.40;;;;;;;6.66;100.00;100190.81;6067738;23;20049;-71
2023/11/24 06:27:31;;;;;;;4.82;4.38;;;;;;;6.67;100.00;100204.69;6114248;23;20013;-69
2023/11/24 06:29:58;;;;;;;8.43;4.65;;;;;;;6.46;100.00;100183.88;6090280;23;20175;-69
2023/11/24 06:32:24;;;;;;;5.10;4.90;;;;;;;6.17;100.00;100157.31;6111184;23;20023;-69
2023/11/24 06:34:51;;;;;;;4.85;4.50;;;;;;;6.51;100.00;100220.16;6079026;23;20041;-69
2023/11/24 06:37:17;;;;;;;3.70;3.50;;;;;;;6.42;100.00;100218.81;6110970;23;20073;-68
2023/11/24 06:39:45;;;;;;;5.35;4.40;;;;;;;6.45;100.00;100246.50;6092625;23;20032;-69
2023/11/24 06:42:12;;;;;;;5.32;3.75;;;;;;;6.49;100.00;100253.25;6106894;23;20341;-68
2023/11/24 06:44:38;;;;;;;7.18;4.70;;;;;;;6.55;100.00;100273.84;6087094;23;20101;-69
2023/11/24 06:47:05;;;;;;;3.78;3.58;;;;;;;6.51;100.00;100267.06;6105436;23;20077;-71
2023/11/24 06:49:32;;;;;;;3.70;3.40;;;;;;;6.51;100.00;100264.47;6102839;23;20574;-69
2023/11/24 06:52:01;;;;;;;3.53;3.42;;;;;;;6.10;100.00;100201.91;6064375;23;20025;-69
2023/11/24 06:54:32;;;;;;;4.93;4.60;;;;;;;6.57;100.00;100274.63;6083719;23;20098;-68
2023/11/24 06:56:59;;;;;;;4.63;3.83;;;;;;;6.52;100.00;100274.84;6102586;23;20086;-68
2023/11/24 06:59:25;;;;;;;4.20;3.97;;;;;;;6.40;100.00;100277.97;6053401;23;20101;-69
2023/11/24 07:01:53;;;;;;;4.38;3.90;;;;;;;6.25;100.00;100292.47;6095609;23;20033;-71
2023/11/24 07:04:20;;;;;;;4.68;4.47;;;;;;;5.73;100.00;100149.56;6109490;23;20050;-69
2023/11/24 07:06:47;;;;;;;3.90;3.70;;;;;;;5.57;100.00;100117.25;6106962;23;20049;-68
2023/11/24 07:09:16;;;;;;;3.22;3.13;;;;;;;5.76;100.00;100159.00;6118954;23;20019;-69
2023/11/24 07:11:42;;;;;;;4.00;3.80;;;;;;;5.02;100.00;100016.25;6105035;23;20558;-70
2023/11/24 07:14:09;;;;;;;3.50;3.40;;;;;;;5.67;100.00;100133.34;6103784;23;20060;-69
2023/11/24 07:16:36;;;;;;;6.97;3.90;;;;;;;5.71;100.00;100156.59;6097066;23;20145;-69
2023/11/24 07:19:02;;;;;;;4.00;3.80;;;;;;;5.77;100.00;100171.97;6086582;23;20033;-68
2023/11/24 07:21:29;;;;;;;4.90;3.65;;;;;;;5.96;100.00;100203.31;6115184;23;20027;-72
2023/11/24 07:23:56;;;;;;;4.15;3.95;;;;;;;5.98;100.00;100222.34;6083710;23;20018;-70
2023/11/24 07:26:22;;;;;;;5.50;5.15;;;;;;;6.11;100.00;100232.25;6097538;23;20471;-68
2023/11/24 07:28:49;;;;;;;4.30;4.10;;;;;;;6.19;100.00;100245.81;6103316;23;20029;-70
2023/11/24 07:31:17;;;;;;;3.63;3.50;;;;;;;6.22;100.00;100256.13;6109727;23;20035;-68
2023/11/24 07:33:48;;;;;;;3.53;3.42;;;;;;;6.19;100.00;100267.53;6076714;23;20421;-68
2023/11/24 07:36:17;;;;;;;3.78;3.67;;;;;;;6.22;100.00;100296.97;6078140;23;20037;-67
2023/11/24 07:38:43;;;;;;;3.65;3.53;;;;;;;6.21;100.00;100303.91;6100747;23;20182;-68
2023/11/24 07:41:10;;;;;;;3.70;3.55;;;;;;;6.23;100.00;100325.53;6103617;23;20408;-68
2023/11/24 07:43:37;;;;;;;3.38;3.28;;;;;;;6.16;100.00;100356.22;6107808;23;20423;-68
2023/11/24 07:46:07;;;;;;;3.80;3.70;;;;;;;5.43;100.00;100260.91;6107409;23;20106;-69
2023/11/24 07:48:34;;;;;;;4.78;4.45;;;;;;;5.69;100.00;100288.59;6079193;23;20180;-70
2023/11/24 07:51:01;;;;;;;6.90;3.60;;;;;;;4.31;100.00;100086.53;6108417;23;20025;-70
2023/11/24 07:53:28;;;;;;;3.70;3.50;;;;;;;5.82;100.00;100361.84;6074492;23;20290;-71
2023/11/24 07:55:54;;;;;;;3.60;3.50;;;;;;;6.16;100.00;100397.91;6083134;23;20033;-69
2023/11/24 07:58:22;;;;;;;5.07;4.88;;;;;;;5.73;100.00;100311.00;6081732;23;20032;-69
2023/11/24 08:00:48;;;;;;;3.38;3.28;;;;;;;6.01;100.00;100356.81;6100628;23;20439;-69
2023/11/24 08:03:17;;;;;;;3.40;3.30;;;;;;;5.92;100.00;100336.31;6088457;23;20088;-68
2023/11/24 08:05:43;;;;;;;3.55;3.45;;;;;;;5.88;100.00;100334.75;6075745;23;20054;-67
2023/11/24 08:08:10;;;;;;;3.42;3.33;;;;;;;5.84;100.00;100327.94;6084375;23;20094;-68
2023/11/24 08:10:36;;;;;;;4.30;4.10;;;;;;;5.82;100.00;100322.78;6097515;23;20337;-67
2023/11/24 08:13:02;;;;;;;3.85;3.75;;;;;;;5.73;100.00;100284.97;6082525;23;20009;-68
2023/11/24 08:15:29;;;;;;;3.63;3.53;;;;;;;5.33;100.00;100204.94;6104473;23;20095;-67
2023/11/24 08:17:57;;;;;;;3.70;3.60;;;;;;;5.71;100.00;100262.47;6079739;23;20009;-70
2023/11/24 08:20:23;;;;;;;8.05;5.10;;;;;;;5.20;100.00;100184.59;6104506;23;20073;-67
2023/11/24 08:22:49;;;;;;;3.50;3.40;;;;;;;5.59;100.00;100242.97;6101016;23;20029;-67
2023/11/24 08:25:16;;;;;;;3.47;3.35;;;;;;;5.63;100.00;100257.56;6100825;23;20245;-68
2023/11/24 08:27:44;;;;;;;4.13;3.88;;;;;;;5.76;100.00;100260.53;6093186;23;20026;-67
2023/11/24 08:30:11;;;;;;;3.72;3.63;;;;;;;5.90;100.00;100270.41;6062685;23;20022;-67
2023/11/24 08:32:39;;;;;;;3.53;3.42;;;;;;;5.75;100.00;100256.22;6095210;23;20029;-69
2023/11/24 08:35:10;;;;;;;8.30;3.30;;;;;;;6.12;100.00;100296.50;6065814;23;20034;-69
2023/11/24 08:37:37;;;;;;;3.45;3.35;;;;;;;6.12;100.00;100286.06;6106081;23;20354;-68
2023/11/24 08:40:04;;;;;;;3.60;3.40;;;;;;;6.28;100.00;100275.88;6105487;23;20359;-68
2023/11/24 08:42:31;;;;;;;4.75;4.55;;;;;;;6.28;100.00;100240.22;6100389;23;20157;-68
2023/11/24 08:44:57;;;;;;;3.92;3.80;;;;;;;5.89;100.00;100144.53;6073642;23;20058;-68
2023/11/24 08:47:27;;;;;;;4.20;3.90;;;;;;;5.83;100.00;100155.22;6088561;23;20033;-68
2023/11/24 08:49:54;;;;;;;3.70;3.60;;;;;;;6.12;100.00;100177.50;6068855;23;20189;-68
2023/11/24 08:52:25;;;;;;;8.25;5.03;;;;;;;6.05;100.00;100183.84;6089476;23;20112;-68
2023/11/24 08:54:52;;;;;;;3.80;3.65;;;;;;;5.95;100.00;100180.81;6103793;23;20447;-68
2023/11/24 08:57:18;;;;;;;5.45;5.00;;;;;;;6.01;100.00;100215.31;6103326;23;20089;-68
2023/11/24 08:59:45;;;;;;;3.65;3.45;;;;;;;5.72;100.00;100173.06;6081233;23;20022;-69
2023/11/24 09:02:11;;;;;;;3.60;3.50;;;;;;;6.31;100.00;100240.09;6105763;23;20456;-68
2023/11/24 09:04:38;;;;;;;3.30;3.20;;;;;;;6.41;100.00;100231.88;6097933;23;20021;-69
2023/11/24 09:07:05;;;;;;;3.67;3.53;;;;;;;6.57;100.00;100235.53;6106110;23;20440;-69
2023/11/24 09:09:33;;;;;;;7.32;3.70;;;;;;;6.82;100.00;100218.84;6091442;23;20032;-70
2023/11/24 09:12:00;;;;;;;3.60;3.50;;;;;;;6.48;100.00;100114.28;6102834;23;20244;-69
2023/11/24 09:14:27;;;;;;;4.82;4.63;;;;;;;6.57;100.00;100100.84;6095367;23;20174;-71
2023/11/24 09:16:53;;;;;;;3.90;3.60;;;;;;;6.83;100.00;100126.63;6107036;23;20125;-69
2023/11/24 09:19:20;;;;;;;3.40;3.30;;;;;;;6.98;100.00;100139.81;6081666;23;20247;-70
2023/11/24 09:21:48;;;;;;;3.70;3.60;;;;;;;6.90;100.00;100092.38;6108175;23;20475;-70
2023/11/24 09:24:15;;;;;;;3.60;3.50;;;;;;;6.90;100.00;100096.75;6087241;23;20021;-69
2023/11/24 09:26:43;;;;;;;3.45;3.35;;;;;;;6.71;100.00;100062.84;6111554;23;20030;-69
2023/11/24 09:29:10;;;;;;;4.45;4.15;;;;;;;6.82;100.00;100028.44;6104591;23;20039;-70
2023/11/24 09:31:37;;;;;;;3.45;3.35;;;;;;;6.82;100.00;100018.84;6091465;23;20084;-69
2023/11/24 09:34:03;;;;;;;7.30;3.80;;;;;;;6.43;100.00;99931.16;6110622;23;20029;-69
2023/11/24 09:36:30;;;;;;;5.97;5.18;;;;;;;6.81;100.00;100001.50;6079779;23;20484;-69
2023/11/24 09:38:57;;;;;;;4.22;3.70;;;;;;;6.79;100.00;99987.69;6112255;23;20085;-70
2023/11/24 09:41:23;;;;;;;3.60;3.50;;;;;;;6.59;100.00;99996.47;6101743;23;20041;-73
2023/11/24 09:43:49;;;;;;;3.63;3.53;;;;;;;6.25;100.00;99963.31;6094072;23;20044;-69
2023/11/24 09:46:16;;;;;;;3.72;3.60;;;;;;;4.99;100.00;99814.41;6106647;23;20036;-69
2023/11/24 09:48:44;;;;;;;3.50;3.40;;;;;;;5.99;100.00;100053.88;6106237;23;20013;-69
2023/11/24 09:51:16;;;;;;;3.50;3.40;;;;;;;5.85;100.00;100051.84;6110120;23;20463;-69
2023/11/24 09:53:43;;;;;;;6.00;3.65;;;;;;;5.70;100.00;100053.34;6088293;23;20025;-69
2023/11/24 09:56:10;;;;;;;3.60;3.50;;;;;;;4.61;100.00;99886.22;6110431;23;20542;-70
2023/11/24 09:58:36;;;;;;;3.65;3.35;;;;;;;5.33;100.00;100023.69;6103466;23;20173;-70
2023/11/24 10:01:16;;;;;;;3.53;3.42;;;;;;;5.40;100.00;100084.09;6090098;23;20030;-68
2023/11/24 10:03:46;;;;;;;3.50;3.40;;;;;;;5.32;100.00;100080.97;6111107;23;20493;-68
2023/11/24 10:06:13;;;;;;;5.10;3.92;;;;;;;4.87;100.00;100054.13;6087647;23;20029;-69
2023/11/24 10:08:41;;;;;;;3.72;3.53;;;;;;;3.95;100.00;99949.34;6108904;23;20028;-69
2023/11/24 10:11:12;;;;;;;3.47;3.33;;;;;;;4.91;100.00;100122.44;6085215;23;20025;-69
2023/11/24 10:13:40;;;;;;;3.50;3.40;;;;;;;5.25;100.00;100223.47;6103280;23;20037;-70
2023/11/24 10:16:07;;;;;;;3.58;3.40;;;;;;;5.20;100.00;100230.59;6085011;23;20082;-69
2023/11/24 10:18:34;;;;;;;4.80;4.47;;;;;;;5.18;100.00;100250.59;6103976;23;20659;-69
2023/11/24 10:21:00;;;;;;;3.80;3.60;;;;;;;5.35;100.00;100262.97;6113216;23;20433;-69
2023/11/24 10:23:30;;;;;;;3.85;3.55;;;;;;;4.79;100.00;100158.41;6102743;23;20027;-69
2023/11/24 10:25:58;;;;;;;4.00;3.80;;;;;;;5.56;100.00;100259.56;6111845;23;20083;-69
2023/11/24 10:28:25;;;;;;;5.97;5.53;;;;;;;5.37;100.00;100185.69;6107236;23;20033;-70
2023/11/24 10:30:56;;;;;;;3.78;3.58;;;;;;;5.63;100.00;100238.50;6109656;23;20060;-69
2023/11/24 10:33:26;;;;;;;3.70;3.55;;;;;;;5.60;100.00;100260.28;6085260;23;20033;-70
2023/11/24 10:36:02;;;;;;;3.50;3.40;;;;;;;5.33;100.00;100254.38;6105905;23;20041;-70
2023/11/24 10:38:31;;;;;;;4.65;4.45;;;;;;;4.90;100.00;100198.75;6089814;23;20026;-69
2023/11/24 10:41:00;;;;;;;3.33;3.22;;;;;;;5.29;100.00;100292.69;6104706;23;20349;-69
2023/11/24 10:43:36;;;;;;;5.15;4.28;;;;;;;5.24;100.00;100265.97;6107280;23;20444;-69
2023/11/24 10:46:07;;;;;;;3.30;3.20;;;;;;;5.37;100.00;100276.78;6107052;23;20036;-68
2023/11/24 10:48:44;;;;;;;7.40;4.40;;;;;;;5.33;100.00;100243.97;6102986;23;20364;-69
2023/11/24 10:51:19;;;;;;;3.13;3.03;;;;;;;5.69;100.00;100236.53;6084545;23;20082;-70
2023/11/24 10:53:56;;;;;;;3.30;3.20;;;;;;;5.87;100.00;100197.59;6102016;23;20052;-69
2023/11/24 10:56:23;;;;;;;5.15;4.95;;;;;;;5.92;100.00;100146.19;6097511;23;20047;-69
2023/11/24 10:58:54;;;;;;;3.40;3.30;;;;;;;5.75;100.00;100076.59;6085738;23;20479;-69
2023/11/24 11:01:24;;;;;;;3.88;3.67;;;;;;;6.02;100.00;100089.38;6103496;23;20374;-71
2023/11/24 11:03:55;;;;;;;4.00;3.80;;;;;;;6.11;100.00;100066.38;6108277;23;20215;-69
2023/11/24 11:06:39;;;;;;;5.32;5.13;;;;;;;5.95;100.00;100019.34;6082412;23;20026;-69
2023/11/24 11:09:23;;;;;;;3.72;3.58;;;;;;;5.97;100.00;100037.47;6106083;23;20468;-69
2023/11/24 11:12:19;;;;;;;4.00;3.80;;;;;;;5.91;100.00;100053.34;6102818;23;20031;-69
2023/11/24 11:14:47;;;;;;;3.38;3.28;;;;;;;5.25;100.00;99954.66;6109521;23;20033;-70
2023/11/24 11:17:20;;;;;;;3.78;3.58;;;;;;;5.73;100.00;100015.91;6086721;23;20045;-70
2023/11/24 11:20:06;;;;;;;3.60;3.40;;;;;;;5.80;100.00;100026.00;6107573;23;20026;-68
2023/11/24 11:22:36;;;;;;;4.40;4.20;;;;;;;5.96;100.00;100020.19;6077783;23;20041;-69
2023/11/24 11:25:32;;;;;;;3.90;3.70;;;;;;;6.08;100.00;100024.00;6107715;23;20041;-69
2023/11/24 11:28:17;;;;;;;3.58;3.47;;;;;;;6.38;100.00;100014.78;6089261;23;20044;-69